createdAt,value
2023-02-19T00:01:47.552Z,27.50
2023-02-19T00:04:20.386Z,28.58
2023-02-19T00:06:48.072Z,26.42
2023-02-19T00:09:17.399Z,27.02
2023-02-19T00:11:44.720Z,26.65
2023-02-19T00:14:16.301Z,26.35
2023-02-19T00:16:43.597Z,32.38
2023-02-19T00:19:16.432Z,27.58
2023-02-19T00:21:43.865Z,27.77
2023-02-19T00:24:12.540Z,27.10
2023-02-19T00:26:40.981Z,26.38
2023-02-19T00:29:09.574Z,33.65
2023-02-19T00:31:37.026Z,29.63
2023-02-19T00:34:06.451Z,27.83
2023-02-19T00:36:37.905Z,29.05
2023-02-19T00:39:07.150Z,28.55
2023-02-19T00:41:35.760Z,31.05
2023-02-19T00:44:05.591Z,30.50
2023-02-19T00:46:41.651Z,29.55
2023-02-19T00:49:16.031Z,27.45
2023-02-19T00:51:43.098Z,35.08
2023-02-19T00:54:10.842Z,34.63
2023-02-19T00:56:37.942Z,30.73
2023-02-19T00:59:05.003Z,29.63
2023-02-19T01:01:32.263Z,28.42
2023-02-19T01:03:59.335Z,29.13
2023-02-19T01:06:26.468Z,28.13
2023-02-19T01:08:53.676Z,27.83
2023-02-19T01:11:20.731Z,30.58
2023-02-19T01:13:48.154Z,25.77
2023-02-19T01:16:21.149Z,28.02
2023-02-19T01:18:48.834Z,30.02
2023-02-19T01:21:21.126Z,28.48
2023-02-19T01:23:50.041Z,27.75
2023-02-19T01:26:20.049Z,30.35
2023-02-19T01:28:48.500Z,29.30
2023-02-19T01:31:21.457Z,30.48
2023-02-19T01:33:52.120Z,30.15
2023-02-19T01:36:19.479Z,31.98
2023-02-19T01:38:46.648Z,31.52
2023-02-19T01:41:17.137Z,34.03
2023-02-19T01:44:03.948Z,30.52
2023-02-19T01:46:35.869Z,32.70
2023-02-19T01:49:09.119Z,34.25
2023-02-19T01:51:39.584Z,30.25
2023-02-19T01:54:11.437Z,29.45
2023-02-19T01:56:42.907Z,30.45
2023-02-19T01:59:10.703Z,28.75
2023-02-19T02:01:39.495Z,32.17
2023-02-19T02:04:11.175Z,35.10
2023-02-19T02:06:59.448Z,26.88
2023-02-19T02:09:47.843Z,32.97
2023-02-19T02:12:15.560Z,35.05
2023-02-19T02:14:48.233Z,33.80
2023-02-19T02:17:56.870Z,31.02
2023-02-19T02:21:02.562Z,28.75
2023-02-19T02:23:41.335Z,29.80
2023-02-19T02:26:25.573Z,29.40
2023-02-19T02:29:11.478Z,27.30
2023-02-19T02:31:43.682Z,31.73
2023-02-19T02:34:27.660Z,31.52
2023-02-19T02:36:57.617Z,30.02
2023-02-19T02:39:28.322Z,26.95
2023-02-19T02:42:17.342Z,27.02
2023-02-19T02:45:11.510Z,28.92
2023-02-19T02:47:55.379Z,28.77
2023-02-19T02:50:26.738Z,31.30
2023-02-19T02:53:18.896Z,30.40
2023-02-19T02:55:49.894Z,28.98
2023-02-19T02:58:18.242Z,26.85
2023-02-19T03:01:11.215Z,27.70
2023-02-19T03:03:41.775Z,28.52
2023-02-19T03:06:12.580Z,27.95
2023-02-19T03:09:00.456Z,31.52
2023-02-19T03:11:48.017Z,26.55
2023-02-19T03:15:02.650Z,28.45
2023-02-19T03:18:00.304Z,29.02
2023-02-19T03:20:28.329Z,31.23
2023-02-19T03:22:57.073Z,28.42
2023-02-19T03:25:46.597Z,29.77
2023-02-19T03:28:41.620Z,30.70
2023-02-19T03:31:15.894Z,34.45
2023-02-19T03:33:45.785Z,32.25
2023-02-19T03:36:19.184Z,34.20
2023-02-19T03:41:26.589Z,29.33
2023-02-19T03:44:09.919Z,31.50
2023-02-19T03:46:51.317Z,27.92
2023-02-19T03:49:50.094Z,29.27
2023-02-19T03:52:54.301Z,27.33
2023-02-19T03:55:51.822Z,30.75
2023-02-19T03:58:50.263Z,30.00
2023-02-19T04:01:23.248Z,28.88
2023-02-19T04:04:35.539Z,28.08
2023-02-19T04:07:04.498Z,28.25
2023-02-19T04:09:43.049Z,31.88
2023-02-19T04:12:15.773Z,28.05
2023-02-19T04:14:47.432Z,28.02
2023-02-19T04:17:25.918Z,29.30
2023-02-19T04:19:54.196Z,32.22
2023-02-19T04:22:22.907Z,27.48
2023-02-19T04:24:53.676Z,26.77
2023-02-19T04:27:20.798Z,30.35
2023-02-19T04:29:48.375Z,29.13
2023-02-19T04:32:15.478Z,30.40
2023-02-19T04:34:42.567Z,26.83
2023-02-19T04:37:09.579Z,29.45
2023-02-19T04:39:36.790Z,29.50
2023-02-19T04:42:04.144Z,27.75
2023-02-19T04:44:31.159Z,30.55
2023-02-19T04:46:58.290Z,31.08
2023-02-19T04:49:25.278Z,28.40
2023-02-19T04:51:52.419Z,30.63
2023-02-19T04:54:19.392Z,28.30
2023-02-19T04:56:46.569Z,28.85
2023-02-19T04:59:13.844Z,29.25
2023-02-19T05:01:41.092Z,30.42
2023-02-19T05:04:08.318Z,31.48
2023-02-19T05:06:35.555Z,31.73
2023-02-19T05:09:02.668Z,31.33
2023-02-19T05:11:29.822Z,32.67
2023-02-19T05:13:57.073Z,35.83
2023-02-19T05:16:24.327Z,31.52
2023-02-19T05:18:51.397Z,29.73
2023-02-19T05:21:18.990Z,36.05
2023-02-19T05:23:46.155Z,40.70
2023-02-19T05:26:18.101Z,34.13
2023-02-19T05:28:47.570Z,30.63
2023-02-19T05:31:15.199Z,32.78
2023-02-19T05:33:44.318Z,29.98
2023-02-19T05:36:13.812Z,34.05
2023-02-19T05:38:42.020Z,29.52
2023-02-19T05:41:13.992Z,34.25
2023-02-19T05:43:42.360Z,33.08
2023-02-19T05:46:10.954Z,30.55
2023-02-19T05:48:38.184Z,31.75
2023-02-19T05:51:08.314Z,34.10
2023-02-19T05:53:35.696Z,30.65
2023-02-19T05:56:03.180Z,31.83
2023-02-19T05:58:30.555Z,33.13
2023-02-19T06:00:57.617Z,31.10
2023-02-19T06:03:24.734Z,36.72
2023-02-19T06:05:51.898Z,30.13
2023-02-19T06:08:19.010Z,24.73
2023-02-19T06:10:46.237Z,26.90
2023-02-19T06:13:13.283Z,22.65
2023-02-19T06:15:40.557Z,22.77
2023-02-19T06:18:07.538Z,21.65
2023-02-19T06:20:34.779Z,25.90
2023-02-19T06:23:01.903Z,21.67
2023-02-19T06:25:29.065Z,18.23
2023-02-19T06:27:56.138Z,17.27
2023-02-19T06:30:26.124Z,16.85
2023-02-19T06:32:54.397Z,16.67
2023-02-19T06:35:21.663Z,19.33
2023-02-19T06:37:49.688Z,16.17
2023-02-19T06:40:17.342Z,18.85
2023-02-19T06:42:44.600Z,17.80
2023-02-19T06:45:11.912Z,21.17
2023-02-19T06:47:38.988Z,18.05
2023-02-19T06:50:06.592Z,20.10
2023-02-19T06:52:33.581Z,20.60
2023-02-19T06:55:00.800Z,18.45
2023-02-19T06:57:27.850Z,19.70
2023-02-19T06:59:54.948Z,16.88
2023-02-19T07:02:22.019Z,16.33
2023-02-19T07:04:49.234Z,18.48
2023-02-19T07:07:16.373Z,17.10
2023-02-19T07:09:43.377Z,16.98
2023-02-19T07:12:10.593Z,17.02
2023-02-19T07:14:37.681Z,18.33
2023-02-19T07:17:06.920Z,17.55
2023-02-19T07:19:35.031Z,15.18
2023-02-19T07:22:02.098Z,18.15
2023-02-19T07:24:29.227Z,17.25
2023-02-19T07:26:56.369Z,16.92
2023-02-19T07:29:23.549Z,20.98
2023-02-19T07:31:50.768Z,16.27
2023-02-19T07:34:17.996Z,17.42
2023-02-19T07:36:45.155Z,22.48
2023-02-19T07:39:15.830Z,18.95
2023-02-19T07:41:43.141Z,19.33
2023-02-19T07:44:16.538Z,20.38
2023-02-19T07:46:44.302Z,19.58
2023-02-19T07:49:11.432Z,23.08
2023-02-19T07:51:40.078Z,22.50
2023-02-19T07:54:08.229Z,19.00
2023-02-19T07:56:35.424Z,21.13
2023-02-19T07:59:02.545Z,19.80
2023-02-19T08:01:48.421Z,27.83
2023-02-19T08:04:16.859Z,21.38
2023-02-19T08:06:44.216Z,23.52
2023-02-19T08:09:12.015Z,24.52
2023-02-19T08:11:57.735Z,21.83
2023-02-19T08:14:28.301Z,21.27
2023-02-19T08:16:55.974Z,22.55
2023-02-19T08:19:23.398Z,23.45
2023-02-19T08:21:50.866Z,19.10
2023-02-19T08:24:17.838Z,20.48
2023-02-19T08:26:45.103Z,25.88
2023-02-19T08:29:12.172Z,20.05
2023-02-19T08:31:39.633Z,17.17
2023-02-19T08:34:06.958Z,22.35
2023-02-19T08:36:34.001Z,25.70
2023-02-19T08:39:01.090Z,20.35
2023-02-19T08:41:28.315Z,20.83
2023-02-19T08:43:55.459Z,20.73
2023-02-19T08:46:22.964Z,20.02
2023-02-19T08:48:50.466Z,17.25
2023-02-19T08:51:17.526Z,16.58
2023-02-19T08:53:44.685Z,16.85
2023-02-19T08:56:15.133Z,17.63
2023-02-19T08:58:42.856Z,17.95
2023-02-19T09:01:12.705Z,19.70
2023-02-19T09:03:40.409Z,17.15
2023-02-19T09:06:08.267Z,17.50
2023-02-19T09:08:35.444Z,16.92
2023-02-19T09:11:04.706Z,18.63
2023-02-19T09:13:31.897Z,20.33
2023-02-19T09:15:59.275Z,19.90
2023-02-19T09:18:26.913Z,17.10
2023-02-19T09:20:54.069Z,17.45
2023-02-19T09:23:21.244Z,20.83
2023-02-19T09:25:48.271Z,16.60
2023-02-19T09:28:17.028Z,17.42
2023-02-19T09:30:44.155Z,16.88
2023-02-19T09:33:11.295Z,17.45
2023-02-19T09:35:41.222Z,19.02
2023-02-19T09:38:10.781Z,17.45
2023-02-19T09:40:39.449Z,16.88
2023-02-19T09:43:15.545Z,15.68
2023-02-19T09:45:43.095Z,15.38
2023-02-19T09:48:11.273Z,14.63
2023-02-19T09:50:42.819Z,15.40
2023-02-19T09:53:21.185Z,14.85
2023-02-19T09:55:48.735Z,15.05
2023-02-19T09:58:30.969Z,17.00
2023-02-19T10:01:01.778Z,15.55
2023-02-19T10:03:35.231Z,19.33
2023-02-19T10:06:11.178Z,20.63
2023-02-19T10:08:41.617Z,17.13
2023-02-19T10:11:13.228Z,16.42
2023-02-19T10:13:48.228Z,16.80
2023-02-19T10:16:24.526Z,17.33
2023-02-19T10:18:52.154Z,14.73
2023-02-19T10:21:22.946Z,18.27
2023-02-19T10:24:00.057Z,16.70
2023-02-19T10:26:27.729Z,17.17
2023-02-19T10:28:55.707Z,17.85
2023-02-19T10:31:25.968Z,18.42
2023-02-19T10:33:56.146Z,15.35
2023-02-19T10:36:34.195Z,18.42
2023-02-19T10:39:03.990Z,15.68
2023-02-19T10:41:31.727Z,16.13
2023-02-19T10:44:13.933Z,13.75
2023-02-19T10:46:47.423Z,17.67
2023-02-19T10:49:33.110Z,17.00
2023-02-19T10:52:20.197Z,14.50
2023-02-19T10:54:55.392Z,13.23
2023-02-19T10:57:34.276Z,15.20
2023-02-19T11:00:15.443Z,15.15
2023-02-19T11:02:46.050Z,12.18
2023-02-19T11:05:15.208Z,16.15
2023-02-19T11:07:49.636Z,14.32
2023-02-19T11:10:42.433Z,15.00
2023-02-19T11:13:16.901Z,13.20
2023-02-19T11:15:44.549Z,12.32
2023-02-19T11:18:14.537Z,10.73
2023-02-19T11:20:57.736Z,12.18
2023-02-19T11:23:30.977Z,8.30
2023-02-19T11:26:02.888Z,11.13
2023-02-19T11:28:34.592Z,9.18
2023-02-19T11:31:23.848Z,10.18
2023-02-19T11:33:54.414Z,10.98
2023-02-19T11:36:34.985Z,10.43
2023-02-19T11:39:17.065Z,11.02
2023-02-19T11:42:04.519Z,8.20
2023-02-19T11:45:04.808Z,7.03
2023-02-19T11:47:59.794Z,9.73
2023-02-19T11:50:55.748Z,7.97
2023-02-19T11:53:32.371Z,7.45
2023-02-19T11:56:09.906Z,7.25
2023-02-19T11:59:05.770Z,10.75
2023-02-19T12:01:54.332Z,7.65
2023-02-19T12:04:40.207Z,7.18
2023-02-19T12:07:48.832Z,8.75
2023-02-19T12:10:25.101Z,9.05
2023-02-19T12:13:23.686Z,6.68
2023-02-19T12:16:18.219Z,7.45
2023-02-19T12:18:54.043Z,7.38
2023-02-19T12:21:36.367Z,9.52
2023-02-19T12:24:15.918Z,6.93
2023-02-19T12:27:07.829Z,13.40
2023-02-19T12:30:03.313Z,8.23
2023-02-19T12:33:01.074Z,8.50
2023-02-19T12:35:54.218Z,8.88
2023-02-19T12:38:40.032Z,6.82
2023-02-19T12:41:16.201Z,9.68
2023-02-19T12:43:53.421Z,7.38
2023-02-19T12:46:28.358Z,9.18
2023-02-19T12:49:21.405Z,7.00
2023-02-19T12:52:16.577Z,8.67
2023-02-19T12:54:51.067Z,7.53
2023-02-19T12:57:26.120Z,7.15
2023-02-19T13:00:00.380Z,7.90
2023-02-19T13:03:20.966Z,7.78
2023-02-19T13:05:58.792Z,9.68
2023-02-19T13:09:07.228Z,10.05
2023-02-19T13:11:53.672Z,8.05
2023-02-19T13:14:43.711Z,7.40
2023-02-19T13:17:20.633Z,8.88
2023-02-19T13:19:50.954Z,7.80
2023-02-19T13:22:58.225Z,6.85
2023-02-19T13:25:52.180Z,7.95
2023-02-19T13:31:32.545Z,12.00
2023-02-19T13:34:05.657Z,8.32
2023-02-19T13:36:36.495Z,7.97
2023-02-19T13:39:07.469Z,9.43
2023-02-19T13:41:41.752Z,10.00
2023-02-19T13:44:19.209Z,7.63
2023-02-19T13:46:48.880Z,8.52
2023-02-19T13:49:42.395Z,14.52
2023-02-19T13:52:33.631Z,9.90
2023-02-19T13:55:40.747Z,8.43
2023-02-19T13:58:33.362Z,8.50
2023-02-19T14:01:01.552Z,6.85
2023-02-19T14:03:48.533Z,9.68
2023-02-19T14:06:15.864Z,15.13
2023-02-19T14:08:51.553Z,7.55
2023-02-19T14:11:41.577Z,8.82
2023-02-19T14:14:34.447Z,10.32
2023-02-19T14:17:35.095Z,9.40
2023-02-19T14:20:05.256Z,7.60
2023-02-19T14:22:48.919Z,9.18
2023-02-19T14:28:25.506Z,9.02
2023-02-19T14:30:57.390Z,11.18
2023-02-19T14:33:49.644Z,8.90
2023-02-19T14:36:44.313Z,13.55
2023-02-19T14:39:21.467Z,12.48
2023-02-19T14:41:54.813Z,9.88
2023-02-19T14:44:38.176Z,9.85
2023-02-19T14:47:22.031Z,10.10
2023-02-19T14:50:01.290Z,9.20
2023-02-19T14:52:32.881Z,12.52
2023-02-19T14:55:00.090Z,7.15
2023-02-19T14:57:36.073Z,7.93
2023-02-19T15:00:21.955Z,11.73
2023-02-19T15:02:51.717Z,10.70
2023-02-19T15:05:24.796Z,9.65
2023-02-19T15:07:55.364Z,8.75
2023-02-19T15:10:23.083Z,10.05
2023-02-19T15:12:57.849Z,9.05
2023-02-19T15:15:29.444Z,7.88
2023-02-19T15:17:59.281Z,9.98
2023-02-19T15:20:31.049Z,10.35
2023-02-19T15:22:59.763Z,10.18
2023-02-19T15:25:39.368Z,10.77
2023-02-19T15:28:20.834Z,14.05
2023-02-19T15:31:00.035Z,9.73
2023-02-19T15:33:28.698Z,8.73
2023-02-19T15:36:03.305Z,7.55
2023-02-19T15:38:31.798Z,11.00
2023-02-19T15:41:00.122Z,8.70
2023-02-19T15:43:51.431Z,10.13
2023-02-19T15:46:22.550Z,10.15
2023-02-19T15:48:55.695Z,9.85
2023-02-19T15:51:32.106Z,10.20
2023-02-19T15:54:08.000Z,7.78
2023-02-19T15:56:38.521Z,8.60
2023-02-19T15:59:36.719Z,11.55
2023-02-19T16:02:05.113Z,9.52
2023-02-19T16:04:34.720Z,9.80
2023-02-19T16:07:03.997Z,9.98
2023-02-19T16:09:33.687Z,11.82
2023-02-19T16:12:02.385Z,9.98
2023-02-19T16:14:37.617Z,9.60
2023-02-19T16:17:10.911Z,10.43
2023-02-19T16:22:24.564Z,11.98
2023-02-19T16:24:55.533Z,10.30
2023-02-19T16:27:41.934Z,14.48
2023-02-19T16:30:18.367Z,13.65
2023-02-19T16:32:47.113Z,9.02
2023-02-19T16:35:37.226Z,10.55
2023-02-19T16:38:14.352Z,10.25
2023-02-19T16:40:54.565Z,8.43
2023-02-19T16:43:31.758Z,10.70
2023-02-19T16:46:00.848Z,13.93
2023-02-19T16:48:29.123Z,22.10
2023-02-19T16:50:56.884Z,14.15
2023-02-19T16:53:25.416Z,11.20
2023-02-19T16:55:53.229Z,11.20
2023-02-19T16:58:22.078Z,11.63
2023-02-19T17:01:01.936Z,12.68
2023-02-19T17:03:29.866Z,10.88
2023-02-19T17:05:58.368Z,14.80
2023-02-19T17:08:40.111Z,10.45
2023-02-19T17:11:15.853Z,14.27
2023-02-19T17:13:46.955Z,18.75
2023-02-19T17:16:30.393Z,13.88
2023-02-19T17:19:01.392Z,13.63
2023-02-19T17:21:32.307Z,11.88
2023-02-19T17:24:00.890Z,14.32
2023-02-19T17:26:31.208Z,12.88
2023-02-19T17:29:01.538Z,12.70
2023-02-19T17:31:30.606Z,14.63
2023-02-19T17:34:00.691Z,14.32
2023-02-19T17:36:31.932Z,12.80
2023-02-19T17:39:02.882Z,14.15
2023-02-19T17:41:31.622Z,17.20
2023-02-19T17:44:00.480Z,15.10
2023-02-19T17:46:29.044Z,13.77
2023-02-19T17:48:58.181Z,15.80
2023-02-19T17:51:26.949Z,18.30
2023-02-19T17:53:55.680Z,16.70
2023-02-19T17:56:27.097Z,17.17
2023-02-19T17:58:58.004Z,19.17
2023-02-19T18:01:27.877Z,19.35
2023-02-19T18:03:56.725Z,16.65
2023-02-19T18:06:25.113Z,19.70
2023-02-19T18:08:55.426Z,17.15
2023-02-19T18:11:25.752Z,21.40
2023-02-19T18:13:55.237Z,21.30
2023-02-19T18:16:23.725Z,13.65
2023-02-19T18:18:51.980Z,14.60
2023-02-19T18:21:21.183Z,17.50
2023-02-19T18:23:50.276Z,16.00
2023-02-19T18:26:21.680Z,15.85
2023-02-19T18:28:49.926Z,18.30
2023-02-19T18:31:17.571Z,15.52
2023-02-19T18:33:45.154Z,22.10
2023-02-19T18:36:13.718Z,19.55
2023-02-19T18:38:43.034Z,18.73
2023-02-19T18:41:14.847Z,18.50
2023-02-19T18:43:42.637Z,16.75
2023-02-19T18:46:10.790Z,17.30
2023-02-19T18:48:39.252Z,20.42
2023-02-19T18:51:11.129Z,23.17
2023-02-19T18:53:38.621Z,20.38
2023-02-19T18:56:09.177Z,23.80
2023-02-19T18:58:36.520Z,25.25
2023-02-19T19:01:03.753Z,22.48
2023-02-19T19:03:32.154Z,20.73
2023-02-19T19:05:59.755Z,23.00
2023-02-19T19:08:29.143Z,21.52
2023-02-19T19:10:57.654Z,23.48
2023-02-19T19:13:25.672Z,23.33
2023-02-19T19:15:52.764Z,25.27
2023-02-19T19:18:19.976Z,21.02
2023-02-19T19:20:47.313Z,24.00
2023-02-19T19:23:14.712Z,23.95
2023-02-19T19:25:41.775Z,24.05
2023-02-19T19:28:09.197Z,20.27
2023-02-19T19:30:36.653Z,24.77
2023-02-19T19:33:04.338Z,25.52
2023-02-19T19:35:35.007Z,24.05
2023-02-19T19:38:02.622Z,23.50
2023-02-19T19:40:30.785Z,25.50
2023-02-19T19:42:58.080Z,22.35
2023-02-19T19:45:25.388Z,22.27
2023-02-19T19:47:53.274Z,24.92
2023-02-19T19:50:21.590Z,25.13
2023-02-19T19:52:49.907Z,26.80
2023-02-19T19:55:17.812Z,24.63
2023-02-19T19:57:45.194Z,29.95
2023-02-19T20:00:16.365Z,31.35
2023-02-19T20:02:47.001Z,29.55
2023-02-19T20:05:17.012Z,31.02
2023-02-19T20:07:45.991Z,34.35
2023-02-19T20:10:16.417Z,36.72
2023-02-19T20:12:44.530Z,36.65
2023-02-19T20:15:13.566Z,35.80
2023-02-19T20:17:41.184Z,35.60
2023-02-19T20:20:09.998Z,38.17
2023-02-19T20:22:39.497Z,33.72
2023-02-19T20:25:07.263Z,33.53
2023-02-19T20:27:34.635Z,33.90
2023-02-19T20:30:02.370Z,33.80
2023-02-19T20:32:29.520Z,29.60
2023-02-19T20:34:56.815Z,30.55
2023-02-19T20:37:23.858Z,34.03
2023-02-19T20:39:51.123Z,25.92
2023-02-19T20:42:19.126Z,22.60
2023-02-19T20:44:46.346Z,28.30
2023-02-19T20:47:13.812Z,27.40
2023-02-19T20:49:46.529Z,23.95
2023-02-19T20:52:17.355Z,25.17
2023-02-19T20:54:45.176Z,24.92
2023-02-19T20:57:14.362Z,27.42
2023-02-19T20:59:41.825Z,22.50
2023-02-19T21:02:16.853Z,20.60
2023-02-19T21:04:44.279Z,19.17
2023-02-19T21:07:11.384Z,20.75
2023-02-19T21:09:38.771Z,22.70
2023-02-19T21:12:06.180Z,23.02
2023-02-19T21:14:33.642Z,25.23
2023-02-19T21:17:01.428Z,23.85
2023-02-19T21:19:29.441Z,24.60
2023-02-19T21:21:59.955Z,21.80
2023-02-19T21:24:28.633Z,20.65
2023-02-19T21:26:57.124Z,19.80
2023-02-19T21:29:27.320Z,19.55
2023-02-19T21:31:58.309Z,19.58
2023-02-19T21:34:29.444Z,21.60
2023-02-19T21:36:57.856Z,21.13
2023-02-19T21:39:27.778Z,19.13
2023-02-19T21:41:55.932Z,19.10
2023-02-19T21:44:23.605Z,17.52
2023-02-19T21:46:51.367Z,18.20
2023-02-19T21:49:19.328Z,19.83
2023-02-19T21:51:49.079Z,20.92
2023-02-19T21:54:21.307Z,20.75
2023-02-19T21:56:49.018Z,22.63
2023-02-19T21:59:16.141Z,20.02
2023-02-19T22:01:43.703Z,24.70
2023-02-19T22:04:14.635Z,19.55
2023-02-19T22:06:42.373Z,21.77
2023-02-19T22:09:10.342Z,21.75
2023-02-19T22:11:37.685Z,21.40
2023-02-19T22:14:04.920Z,19.65
2023-02-19T22:16:32.466Z,19.45
2023-02-19T22:19:01.841Z,16.80
2023-02-19T22:21:34.550Z,18.38
2023-02-19T22:24:03.198Z,21.95
2023-02-19T22:26:34.137Z,22.38
2023-02-19T22:29:07.304Z,22.75
2023-02-19T22:31:35.852Z,24.50
2023-02-19T22:34:03.152Z,25.15
2023-02-19T22:36:32.025Z,21.73
2023-02-19T22:38:59.589Z,23.55
2023-02-19T22:41:27.235Z,22.00
2023-02-19T22:43:55.827Z,17.20
2023-02-19T22:46:25.634Z,22.75
2023-02-19T22:48:52.962Z,21.70
2023-02-19T22:51:22.514Z,21.13
2023-02-19T22:53:52.065Z,18.90
2023-02-19T22:56:23.450Z,19.85
2023-02-19T22:58:51.447Z,22.67
2023-02-19T23:01:19.117Z,22.73
2023-02-19T23:03:56.750Z,24.10
2023-02-19T23:06:27.403Z,24.38
2023-02-19T23:08:56.820Z,28.48
2023-02-19T23:11:27.079Z,31.35
2023-02-19T23:13:56.057Z,32.60
2023-02-19T23:16:23.273Z,28.30
2023-02-19T23:18:50.798Z,31.17
2023-02-19T23:21:18.984Z,24.88
2023-02-19T23:23:48.224Z,27.05
2023-02-19T23:26:16.015Z,24.17
2023-02-19T23:28:43.800Z,26.83
2023-02-19T23:31:11.608Z,23.10
2023-02-19T23:33:39.008Z,26.35
2023-02-19T23:36:07.039Z,19.80
2023-02-19T23:38:34.193Z,22.55
2023-02-19T23:41:01.456Z,22.58
2023-02-19T23:43:28.578Z,22.58
2023-02-19T23:45:55.835Z,19.63
2023-02-19T23:48:23.066Z,20.98
2023-02-19T23:50:50.126Z,19.98
2023-02-19T23:53:17.440Z,21.02
2023-02-19T23:55:44.504Z,21.45
2023-02-19T23:58:11.707Z,27.55
